METAR Data
IDs: Format: Raw Decoded Include TAF

Data at: 0125 UTC 12 May 2021

KMCX 120115Z AUTO 35007KT 10SM CLR 07/M01 A3036 RMK AO2 T00651014
KMCX 120055Z AUTO 34007KT 10SM CLR 07/M02 A3035 RMK AO2 T00711016
KMCX 120035Z AUTO 35008G15KT 10SM CLR 08/M02 A3034 RMK AO2 T00841022
KMCX 120015Z AUTO 35010KT 10SM CLR 09/M02 A3033 RMK AO2 T00901023
KMCX 112355Z AUTO 36012G15KT 10SM CLR 10/M02 A3033 RMK AO2 T00951025 10134 20095
KMCX 112335Z AUTO 02010KT 10SM CLR 10/M03 A3032 RMK AO2 T01041029
KMCX 112315Z AUTO 36009G12KT 10SM CLR 10/M03 A3032 RMK AO2 T01021033
KMCX 112255Z AUTO 01012KT 10SM CLR 11/M03 A3031 RMK AO2 T01131027
KMCX 112235Z AUTO 36011KT 10SM CLR 11/M03 A3031 RMK AO2 T01121027
KMCX 112215Z AUTO 01011KT 10SM CLR 12/M02 A3030 RMK AO2 T01151025
KMCX 112155Z AUTO 36014KT 10SM CLR 12/M03 A3030 RMK AO2 T01171030
KMCX 112135Z AUTO 36014G21KT 10SM CLR 12/M03 A3030 RMK AO2 T01201031
KMCX 112115Z AUTO 35012G18KT 10SM CLR 12/M02 A3030 RMK AO2 T01241019
KMCX 112055Z AUTO 34015G20KT 10SM CLR 13/M01 A3029 RMK AO2 T01271012
KMCX 112035Z AUTO 35014G17KT 10SM SCT060 13/M02 A3030 RMK AO2 T01261019
KMCX 112015Z AUTO 35013G22KT 10SM SCT060 13/M01 A3030 RMK AO2 T01311012
KMCX 111955Z AUTO 34013KT 10SM SCT060 13/M02 A3030 RMK AO2 T01261017
KMCX 111935Z AUTO 36014G18KT 10SM BKN060 13/M01 A3031 RMK AO2 T01261012
KMCX 111915Z AUTO 01010KT 10SM BKN060 13/M01 A3030 RMK AO2 T01301013
KMCX 111855Z AUTO 34010KT 10SM BKN050 13/M01 A3030 RMK AO2 T01261010
KMCX 111835Z AUTO 35007G18KT 10SM SCT050 13/M01 A3031 RMK AO2 T01321009
KMCX 111815Z AUTO 34009G16KT 10SM SCT050 SCT060 12/00 A3031 RMK AO2 T01231002
KMCX 111755Z AUTO 35008G16KT 310V020 10SM BKN050 BKN060 12/M01 A3032 RMK AO2 T01181006 10127 20053
KMCX 111735Z AUTO 35010G15KT 10SM SCT050 13/00 A3033 RMK AO2 T01250003
KMCX 111715Z AUTO 35009G17KT 10SM BKN050 BKN060 11/00 A3034 RMK AO2 T01111002
KMCX 111655Z AUTO 35008G15KT 10SM SCT048 BKN060 11/M01 A3034 RMK AO2 T01121010
KMCX 111635Z AUTO 36008G17KT 10SM BKN045 BKN060 11/01 A3033 RMK AO2 T01100006
KMCX 111615Z AUTO 04008KT 10SM SCT043 11/01 A3033 RMK AO2 T01110005
KMCX 111555Z AUTO 04007KT 10SM SCT043 11/01 A3033 RMK AO2 T01060005
KMCX 111535Z AUTO 03006KT 10SM CLR 10/00 A3033 RMK AO2 T01030003
KMCX 111515Z AUTO 01006KT 10SM CLR 10/01 A3033 RMK AO2 T00990006
KMCX 111455Z AUTO 02004KT 10SM CLR 09/00 A3033 RMK AO2 T00920000
KMCX 111435Z AUTO 01005KT 10SM CLR 09/01 A3032 RMK AO2 T00920013
KMCX 111415Z AUTO 06006KT 10SM CLR 08/01 A3033 RMK AO2 T00810006
KMCX 111355Z AUTO 04006KT 10SM CLR 08/01 A3032 RMK AO2 T00770006
KMCX 111335Z AUTO 05008KT 10SM CLR 07/00 A3031 RMK AO2 T00710004
KMCX 111315Z AUTO 05009KT 10SM CLR 07/00 A3030 RMK AO2 T00680004
KMCX 111255Z AUTO 05007KT 10SM CLR 06/01 A3030 RMK AO2 T00640005
KMCX 111235Z AUTO 05009KT 10SM SCT095 06/01 A3030 RMK AO2 T00570005
KMCX 111215Z AUTO 04004KT 10SM SCT110 06/01 A3030 RMK AO2 T00570009
KMCX 111155Z AUTO 03005KT 10SM SCT080 BKN110 05/01 A3029 RMK AO2 70003 T00530007 10064 20043
KMCX 111135Z AUTO 02006KT 10SM SCT080 OVC110 05/01 A3028 RMK AO2 T00500005
KMCX 111115Z AUTO 04005KT 10SM SCT080 OVC110 05/00 A3027 RMK AO2 T00450001
KMCX 111055Z AUTO 01004KT 10SM SCT080 OVC110 04/00 A3027 RMK AO2 T00430002
KMCX 111035Z AUTO 02004KT 10SM SCT080 OVC110 05/00 A3026 RMK AO2 T00460000
KMCX 111015Z AUTO 02005KT 10SM OVC120 05/00 A3025 RMK AO2 T00461001
KMCX 110955Z AUTO 02004KT 10SM SCT085 OVC120 05/00 A3025 RMK AO2 T00460000
KMCX 110935Z AUTO 02003KT 10SM OVC120 05/00 A3024 RMK AO2 T00471002
KMCX 110915Z AUTO 02005KT 10SM OVC120 05/00 A3023 RMK AO2 T00501005
KMCX 110855Z AUTO 02005KT 10SM SCT100 OVC120 05/00 A3023 RMK AO2 T00511004
KMCX 110835Z AUTO 02005KT 10SM BKN100 OVC120 05/M01 A3022 RMK AO2 T00541009
KMCX 110815Z AUTO 03007KT 10SM BKN090 OVC120 06/M01 A3022 RMK AO2 T00551012
KMCX 110755Z AUTO 01005KT 10SM OVC090 06/M01 A3022 RMK AO2 T00561012
KMCX 110735Z AUTO 03005KT 10SM OVC080 06/M01 A3021 RMK AO2 T00591006
KMCX 110715Z AUTO 03004KT 10SM OVC080 06/00 A3021 RMK AO2 T00601001
KMCX 110655Z AUTO 03003KT 10SM OVC080 06/00 A3021 RMK AO2 T00610000
KMCX 110635Z AUTO 01006KT 10SM BKN080 BKN120 06/00 A3021 RMK AO2 T00610002
KMCX 110615Z AUTO 03003KT 10SM SCT090 BKN120 06/00 A3021 RMK AO2 T00620004
KMCX 110555Z AUTO 02005KT 10SM OVC090 06/02 A3020 RMK AO2 60001 T00630015 10100 20062
KMCX 110535Z AUTO 35005KT 10SM BKN090 OVC110 06/03 A3020 RMK AO2 T00640028
KMCX 110515Z AUTO 36005KT 10SM SCT075 SCT090 OVC110 07/03 A3019 RMK AO2 T00650032
KMCX 110455Z AUTO 03004KT 10SM OVC075 07/03 A3019 RMK AO2 T00670030 401500011
KMCX 110435Z AUTO 00000KT 10SM -DZ OVC075 07/03 A3019 RMK AO2 T00650032
KMCX 110415Z AUTO 05004KT 10SM RA SCT046 SCT050 OVC075 07/03 A3019 RMK AO2 T00660031
KMCX 110355Z AUTO 05004KT 10SM -RA SCT050 SCT065 OVC075 07/03 A3019 RMK AO2 T00670026
KMCX 110335Z AUTO 03007KT 10SM RA SCT060 OVC075 07/03 A3020 RMK AO2 T00690029
KMCX 110315Z AUTO 03007KT 10SM -DZ SCT060 OVC075 07/03 A3019 RMK AO2 T00720032
KMCX 110255Z AUTO 01009KT 10SM DZ SCT060 OVC075 07/04 A3019 RMK AO2 60001 T00730037
KMCX 110235Z AUTO 36008KT 10SM -DZ OVC075 08/04 A3018 RMK AO2 T00760035
KMCX 110215Z AUTO 01009G14KT 10SM OVC075 08/03 A3017 RMK AO2 T00800033
KMCX 110155Z AUTO 01009KT 10SM OVC075 08/04 A3017 RMK AO2 P0001 T00840042
KMCX 110135Z AUTO 36008KT 10SM -RA OVC075 09/06 A3016 RMK AO2 P0001 T00890055
KMCX 110115Z AUTO 36006KT 10SM DZ SCT060 OVC075 09/08 A3015 RMK AO2 P0001 T00930078
KMCX 110055Z AUTO 33003KT 10SM RA OVC075 10/08 A3015 RMK AO2 T00950082
KMCX 110035Z AUTO 33006KT 10SM DZ SCT065 OVC075 10/08 A3014 RMK AO2 T00950080
KMCX 110015Z AUTO 33006KT 10SM -RA OVC065 10/08 A3014 RMK AO2 T00960079
KMCX 102355Z AUTO 33007KT 10SM DZ SCT050 OVC065 10/08 A3014 RMK AO2 P0001 60002 T01010078 10150 20101
KMCX 102335Z AUTO 26003KT 10SM -RA SCT050 OVC065 10/08 A3012 RMK AO2 P0001 T01030076
KMCX 102315Z AUTO 29005KT 10SM DZ BKN050 OVC065 11/07 A3013 RMK AO2 T01050072
KMCX 102255Z AUTO 32008KT 10SM DZ OVC050 11/07 A3013 RMK AO2 T01060073
KMCX 102235Z AUTO 31008KT 10SM -DZ SCT050 OVC065 11/08 A3013 RMK AO2 T01080077
KMCX 102215Z AUTO 30007KT 10SM -RA OVC050 11/08 A3012 RMK AO2 T01080076
KMCX 102155Z AUTO 27006KT 10SM -DZ OVC050 11/07 A3012 RMK AO2 P0001 T01100073
KMCX 102135Z AUTO 27008KT 10SM RA SCT048 BKN060 OVC070 11/07 A3011 RMK AO2 P0001 T01090070
KMCX 102115Z AUTO 26012G22KT 7SM RA BKN048 BKN060 OVC090 12/05 A3012 RMK AO2 T01200054
KMCX 102055Z AUTO 26006KT 10SM SCT060 BKN090 14/04 A3010 RMK AO2 T01440040
KMCX 102035Z AUTO 00000KT 10SM SCT060 SCT080 BKN120 15/03 A3011 RMK AO2 T01500030
KMCX 102015Z AUTO 21005KT 10SM SCT120 14/03 A3012 RMK AO2 T01430031
KMCX 101955Z AUTO 00000KT 10SM SCT060 SCT090 14/03 A3012 RMK AO2 T01440028
KMCX 101935Z AUTO 29003KT 10SM SCT065 BKN070 OVC085 14/02 A3012 RMK AO2 T01350019
KMCX 101915Z AUTO 31003KT 10SM OVC065 13/01 A3012 RMK AO2 T01310011
KMCX 101855Z AUTO 26003KT 10SM SCT050 BKN065 OVC075 13/01 A3013 RMK AO2 T01330014
KMCX 101835Z AUTO 35006KT 10SM BKN065 BKN100 14/02 A3013 RMK AO2 T01390018
KMCX 101815Z AUTO 30003KT 10SM SCT046 BKN070 BKN100 14/02 A3014 RMK AO2 T01440022
KMCX 101755Z AUTO 34006KT 10SM SCT046 BKN070 BKN095 14/03 A3014 RMK AO2 T01420027 10148 20031
KMCX 101735Z AUTO 28006KT 10SM SCT070 BKN095 BKN120 15/03 A3014 RMK AO2 T01460033
KMCX 101715Z AUTO 29005KT 10SM SCT040 SCT070 OVC095 14/03 A3014 RMK AO2 T01350031
KMCX 101655Z AUTO 32004KT 10SM SCT038 BKN070 OVC120 13/04 A3014 RMK AO2 T01320038
KMCX 101635Z AUTO 28005KT 10SM SCT070 OVC120 13/03 A3015 RMK AO2 T01280034
KMCX 101615Z AUTO 28005KT 10SM OVC120 12/03 A3014 RMK AO2 T01230034
KMCX 101555Z AUTO 28005KT 10SM OVC120 12/04 A3014 RMK AO2 T01190040
KMCX 101535Z AUTO 32007KT 10SM OVC120 12/05 A3014 RMK AO2 T01170046
KMCX 101515Z AUTO 30005KT 10SM OVC120 11/05 A3014 RMK AO2 T01090048
KMCX 101455Z AUTO 30004KT 10SM OVC120 10/05 A3014 RMK AO2 T01010045
KMCX 101435Z AUTO 29005KT 10SM SCT120 10/04 A3013 RMK AO2 T00970042
KMCX 101415Z AUTO 31005KT 10SM SCT120 09/04 A3013 RMK AO2 T00900037
KMCX 101355Z AUTO 28004KT 10SM OVC120 08/04 A3013 RMK AO2 T00810040
KMCX 101335Z AUTO 31005KT 10SM BKN120 08/03 A3013 RMK AO2 T00760032